Time;durP1;ratioP1;P1;durP2;ratioP2;P2;SDS_P1;SDS_P2;PMS_P1;PMS_P2;Temp;Humidity;BMP_temperature;BMP_pressure;BME280_temperature;BME280_humidity;BME280_pressure;Samples;Min_cycle;Max_cycle;Signal;HPM_P1;HPM_P2
2021/12/13 00:00:25;;;;;;;25.20;22.60;;;22.40;74.80;;;;;;6194991;28;89288;-64
2021/12/13 00:03:30;;;;;;;25.33;22.73;;;22.40;74.90;;;;;;6203593;28;87929;-64
2021/12/13 00:06:38;;;;;;;23.90;21.50;;;22.40;74.90;;;;;;6193864;28;89086;-64
2021/12/13 00:09:44;;;;;;;25.05;22.55;;;22.40;75.00;;;;;;6196435;28;89501;-64
2021/12/13 00:12:50;;;;;;;24.73;22.13;;;22.40;74.90;;;;;;6202863;28;89096;-64
2021/12/13 00:15:56;;;;;;;24.25;21.85;;;22.30;74.90;;;;;;6190773;28;89338;-64
2021/12/13 00:19:01;;;;;;;24.48;22.00;;;22.30;74.90;;;;;;6201214;28;88352;-64
2021/12/13 00:22:08;;;;;;;24.05;21.65;;;22.30;74.90;;;;;;6203057;28;89442;-64
2021/12/13 00:25:15;;;;;;;24.30;21.83;;;22.30;74.90;;;;;;6202801;28;90669;-64
2021/12/13 00:28:20;;;;;;;23.95;21.55;;;22.30;74.90;;;;;;6196912;28;89977;-64
2021/12/13 00:31:27;;;;;;;24.00;21.60;;;22.30;75.00;;;;;;6202192;28;89115;-64
2021/12/13 00:34:33;;;;;;;23.73;21.33;;;22.30;75.00;;;;;;6199725;28;89187;-64
2021/12/13 00:37:40;;;;;;;24.20;21.80;;;22.30;75.00;;;;;;6200345;28;89151;-64
2021/12/13 00:40:49;;;;;;;22.92;20.65;;;22.30;75.00;;;;;;6192171;28;89111;-64
2021/12/13 00:43:55;;;;;;;23.10;20.77;;;22.30;75.00;;;;;;6201851;28;88015;-64
2021/12/13 00:47:01;;;;;;;23.55;21.15;;;22.30;74.90;;;;;;6204359;28;88948;-64
2021/12/13 00:50:07;;;;;;;23.25;20.95;;;22.30;74.90;;;;;;6201424;28;88423;-65
2021/12/13 00:53:11;;;;;;;22.85;20.52;;;22.30;74.90;;;;;;6191353;28;89130;-64
2021/12/13 00:56:46;;;;;;;22.80;20.48;;;22.30;74.80;;;;;;6190963;28;89293;-64
2021/12/13 00:59:55;;;;;;;22.63;20.35;;;22.30;74.70;;;;;;6187300;28;90354;-64
2021/12/13 01:03:01;;;;;;;23.38;21.08;;;22.30;74.70;;;;;;6200704;28;89183;-64
2021/12/13 01:06:54;;;;;;;22.70;20.30;;;22.30;74.70;;;;;;6202130;28;89078;-64
2021/12/13 01:10:30;;;;;;;22.13;19.95;;;22.30;74.60;;;;;;6168768;28;90387;-64
2021/12/13 01:13:37;;;;;;;22.13;19.83;;;22.30;74.60;;;;;;6168168;28;89054;-64
2021/12/13 01:16:54;;;;;;;21.58;19.30;;;22.30;74.50;;;;;;6194337;28;89143;-64
2021/12/13 01:20:05;;;;;;;22.27;20.02;;;22.30;74.60;;;;;;6202171;28;89325;-64
2021/12/13 01:23:16;;;;;;;20.95;18.85;;;22.30;74.70;;;;;;6194854;28;88447;-64
2021/12/13 01:26:34;;;;;;;22.23;19.98;;;22.20;74.60;;;;;;6200137;28;89074;-64
2021/12/13 01:29:38;;;;;;;20.88;18.77;;;22.20;74.70;;;;;;6204986;28;89072;-64
2021/12/13 01:32:45;;;;;;;21.63;19.40;;;22.20;74.70;;;;;;6209172;28;90141;-64
2021/12/13 01:35:51;;;;;;;20.65;18.55;;;22.10;74.70;;;;;;6207370;28;88256;-64
2021/12/13 01:38:57;;;;;;;20.77;18.67;;;22.10;74.70;;;;;;6201595;28;89097;-64
2021/12/13 01:42:03;;;;;;;20.88;18.77;;;22.10;74.70;;;;;;6207784;28;87945;-64
2021/12/13 01:45:11;;;;;;;19.73;17.73;;;22.10;74.80;;;;;;6205795;28;88254;-64
2021/12/13 01:48:22;;;;;;;19.83;17.83;;;22.10;74.80;;;;;;6210293;28;89100;-64
2021/12/13 01:51:27;;;;;;;19.77;17.77;;;22.10;74.80;;;;;;6195434;28;89115;-64
2021/12/13 01:54:29;;;;;;;19.27;17.30;;;22.00;74.80;;;;;;6194592;28;88273;-64
2021/12/13 01:57:41;;;;;;;19.63;17.70;;;22.00;74.80;;;;;;6201675;28;89112;-64
2021/12/13 02:01:09;;;;;;;18.67;16.88;;;22.10;74.90;;;;;;6205715;28;89580;-64
2021/12/13 02:04:13;;;;;;;18.65;16.83;;;22.00;74.90;;;;;;6200362;28;90054;-64
2021/12/13 02:07:15;;;;;;;19.25;17.25;;;22.00;74.80;;;;;;6204118;28;89374;-64
2021/12/13 02:10:23;;;;;;;18.33;16.52;;;22.00;74.90;;;;;;6203699;28;89154;-64
2021/12/13 02:13:34;;;;;;;19.33;17.42;;;22.00;74.90;;;;;;6201683;28;89114;-64
2021/12/13 02:17:01;;;;;;;18.65;16.83;;;22.00;74.90;;;;;;6205984;28;89227;-64
2021/12/13 02:20:12;;;;;;;18.35;16.55;;;22.00;74.90;;;;;;6204338;28;87952;-64
2021/12/13 02:23:15;;;;;;;19.10;17.20;;;22.00;74.80;;;;;;6207257;28;89032;-64
2021/12/13 02:26:19;;;;;;;18.65;16.77;;;22.00;74.80;;;;;;6205394;28;88336;-64
2021/12/13 02:29:30;;;;;;;18.23;16.42;;;22.00;74.70;;;;;;6206909;28;89125;-64
2021/12/13 02:32:35;;;;;;;17.50;15.80;;;22.00;74.70;;;;;;6205055;28;89232;-65
2021/12/13 02:35:41;;;;;;;18.30;16.42;;;22.00;74.60;;;;;;6205171;28;90345;-64
2021/12/13 02:38:47;;;;;;;18.90;16.90;;;22.00;74.60;;;;;;6199515;28;89184;-64
2021/12/13 02:41:50;;;;;;;18.38;16.48;;;22.00;74.60;;;;;;6206555;28;89525;-64
2021/12/13 02:44:57;;;;;;;17.77;15.98;;;22.00;74.50;;;;;;6194434;28;88048;-64
2021/12/13 02:48:03;;;;;;;18.77;16.88;;;22.00;74.50;;;;;;6184961;28;89177;-64
2021/12/13 02:51:10;;;;;;;18.98;17.08;;;22.00;74.70;;;;;;6155791;28;1258289;-64
2021/12/13 02:54:18;;;;;;;18.67;16.88;;;22.00;74.70;;;;;;6201761;28;88968;-64
2021/12/13 02:57:23;;;;;;;18.25;16.52;;;21.90;74.60;;;;;;6200652;28;89107;-64
2021/12/13 03:00:28;;;;;;;18.05;16.25;;;21.90;74.70;;;;;;6206093;28;89460;-64
2021/12/13 03:03:35;;;;;;;18.05;16.15;;;21.90;74.70;;;;;;6202371;28;87991;-64
2021/12/13 03:06:41;;;;;;;19.17;17.17;;;21.90;74.70;;;;;;6202267;28;88914;-64
2021/12/13 03:09:47;;;;;;;18.88;16.98;;;21.90;74.80;;;;;;6204550;28;89100;-64
2021/12/13 03:12:49;;;;;;;17.85;16.15;;;21.90;74.90;;;;;;6203200;28;88036;-64
2021/12/13 03:15:58;;;;;;;17.13;15.43;;;21.90;74.90;;;;;;6192753;28;89109;-64
2021/12/13 03:19:06;;;;;;;17.58;15.88;;;21.80;75.70;;;;;;6192103;28;88960;-64
2021/12/13 03:22:29;;;;;;;18.27;16.45;;;21.80;74.80;;;;;;6194488;28;89260;-64
2021/12/13 03:25:53;;;;;;;18.40;16.52;;;21.80;74.90;;;;;;6203038;28;89004;-64
2021/12/13 03:29:11;;;;;;;17.58;15.88;;;21.80;74.90;;;;;;6201298;28;88353;-64
2021/12/13 03:32:16;;;;;;;17.85;16.05;;;21.80;74.90;;;;;;6201625;28;89007;-64
2021/12/13 03:35:22;;;;;;;17.77;15.98;;;21.80;74.90;;;;;;6201317;28;89094;-64
2021/12/13 03:38:29;;;;;;;18.58;16.73;;;21.80;74.90;;;;;;6192471;28;90334;-64
2021/12/13 03:41:36;;;;;;;18.40;16.58;;;21.80;74.90;;;;;;6194711;28;89124;-64
2021/12/13 03:44:46;;;;;;;17.75;15.98;;;21.70;74.90;;;;;;6205450;28;89099;-64
2021/12/13 03:47:56;;;;;;;16.83;15.10;;;21.80;75.00;;;;;;6204010;28;89479;-64
2021/12/13 03:51:03;;;;;;;17.98;16.17;;;21.70;74.80;;;;;;6197534;28;89084;-64
2021/12/13 03:54:08;;;;;;;17.67;15.88;;;21.80;74.90;;;;;;6203728;28;87999;-64
2021/12/13 03:57:31;;;;;;;17.52;15.82;;;21.80;74.70;;;;;;6190813;28;89029;-64
2021/12/13 04:00:52;;;;;;;17.05;15.35;;;21.80;74.60;;;;;;6208330;28;88535;-64
2021/12/13 04:03:57;;;;;;;17.40;15.65;;;21.80;74.50;;;;;;6197738;28;89098;-63
2021/12/13 04:07:06;;;;;;;16.30;14.70;;;21.80;74.50;;;;;;6203334;28;89374;-65
2021/12/13 04:10:12;;;;;;;17.23;15.52;;;21.90;74.50;;;;;;6205432;28;89991;-64
2021/12/13 04:13:19;;;;;;;17.17;15.48;;;21.80;74.40;;;;;;6191406;28;89006;-64
2021/12/13 04:16:33;;;;;;;16.65;15.05;;;21.80;74.40;;;;;;6199760;28;89088;-64
2021/12/13 04:19:49;;;;;;;16.38;14.77;;;21.80;74.40;;;;;;6201299;28;88599;-64
2021/12/13 04:22:56;;;;;;;16.60;15.00;;;21.80;74.50;;;;;;6204015;28;89143;-64
2021/12/13 04:26:01;;;;;;;16.75;15.05;;;21.80;74.60;;;;;;6203736;28;89049;-64
2021/12/13 04:29:05;;;;;;;16.45;14.75;;;21.80;74.60;;;;;;6204181;28;89110;-64
2021/12/13 04:32:17;;;;;;;17.13;15.43;;;21.80;74.60;;;;;;6206811;28;88240;-65
2021/12/13 04:35:19;;;;;;;16.02;14.43;;;21.80;74.60;;;;;;6193665;28;87955;-64
2021/12/13 04:38:25;;;;;;;15.90;14.30;;;21.70;74.60;;;;;;6206333;28;89209;-64
2021/12/13 04:41:32;;;;;;;15.52;14.02;;;21.70;74.60;;;;;;6192632;28;89974;-64
2021/12/13 04:44:39;;;;;;;15.32;13.82;;;21.80;74.60;;;;;;6203690;28;89329;-64
2021/12/13 04:47:48;;;;;;;15.70;14.10;;;21.80;74.70;;;;;;6182293;28;89390;-64
2021/12/13 04:50:59;;;;;;;15.15;13.65;;;21.80;74.70;;;;;;6203558;28;89262;-64
2021/12/13 04:54:01;;;;;;;15.13;13.63;;;21.80;74.50;;;;;;6204879;28;89037;-64
2021/12/13 04:57:06;;;;;;;14.50;13.10;;;21.80;74.50;;;;;;6201642;28;89262;-64
2021/12/13 05:00:15;;;;;;;14.73;13.32;;;21.80;74.50;;;;;;6204428;28;89448;-64
2021/12/13 05:03:20;;;;;;;14.65;13.15;;;21.80;74.50;;;;;;6199217;28;88300;-64
2021/12/13 05:06:26;;;;;;;13.70;12.40;;;21.80;74.40;;;;;;6193982;28;89064;-64
2021/12/13 05:09:29;;;;;;;14.15;12.82;;;21.80;74.40;;;;;;6186655;28;89351;-64
2021/12/13 05:12:31;;;;;;;14.43;13.02;;;21.90;74.50;;;;;;6188810;28;90022;-64
2021/12/13 05:15:37;;;;;;;13.10;11.90;;;21.80;74.40;;;;;;6201569;28;89185;-64
2021/12/13 05:18:43;;;;;;;13.25;11.95;;;21.90;74.40;;;;;;6204156;28;89169;-64
2021/12/13 05:21:48;;;;;;;13.38;12.07;;;21.90;74.40;;;;;;6203967;28;89183;-64
2021/12/13 05:24:53;;;;;;;13.18;11.88;;;21.90;74.30;;;;;;6199322;28;89082;-64
2021/12/13 05:28:03;;;;;;;13.52;12.23;;;21.90;74.20;;;;;;6191912;28;89025;-64
2021/12/13 05:31:10;;;;;;;12.40;11.20;;;22.00;74.20;;;;;;6205811;28;89063;-64
2021/12/13 05:34:12;;;;;;;12.18;10.98;;;22.00;74.20;;;;;;6187551;28;88276;-64
2021/12/13 05:37:15;;;;;;;12.43;11.23;;;22.00;74.10;;;;;;6195474;28;89087;-64
2021/12/13 05:40:19;;;;;;;12.70;11.50;;;22.00;74.10;;;;;;6202554;28;89037;-64
2021/12/13 05:43:24;;;;;;;12.88;11.68;;;22.00;74.00;;;;;;6192700;28;90326;-64
2021/12/13 05:46:37;;;;;;;11.93;10.77;;;22.10;74.00;;;;;;6196775;28;88992;-64
2021/12/13 05:49:44;;;;;;;12.10;10.90;;;22.10;74.00;;;;;;6185664;28;89072;-64
2021/12/13 05:52:47;;;;;;;11.23;10.15;;;22.10;74.00;;;;;;6198214;28;89073;-64
2021/12/13 05:56:08;;;;;;;11.68;10.55;;;22.10;74.00;;;;;;6195740;28;89016;-64
2021/12/13 05:59:20;;;;;;;11.80;10.70;;;22.10;74.00;;;;;;6209147;28;87999;-64
2021/12/13 06:02:41;;;;;;;11.55;10.48;;;22.00;74.00;;;;;;6207453;28;89049;-64
2021/12/13 06:05:48;;;;;;;11.30;10.27;;;22.00;74.00;;;;;;6197215;28;87206;-65
2021/12/13 06:08:53;;;;;;;10.93;9.85;;;22.00;74.10;;;;;;6195227;28;89130;-64
2021/12/13 06:12:06;;;;;;;10.50;9.50;;;22.00;74.10;;;;;;6197907;28;89400;-64
2021/12/13 06:15:28;;;;;;;10.77;9.77;;;22.00;74.20;;;;;;6208972;28;90310;-64
2021/12/13 06:18:39;;;;;;;10.50;9.50;;;22.00;74.20;;;;;;6209608;28;89163;-64
2021/12/13 06:21:56;;;;;;;10.45;9.45;;;22.00;74.20;;;;;;6196321;28;89034;-64
2021/12/13 06:25:00;;;;;;;9.77;8.88;;;22.00;74.20;;;;;;6204942;28;89120;-64
2021/12/13 06:28:03;;;;;;;10.32;9.32;;;22.00;74.30;;;;;;6195687;28;88301;-64
2021/12/13 06:31:08;;;;;;;10.30;9.30;;;21.90;74.20;;;;;;6197354;28;89137;-64
2021/12/13 06:34:15;;;;;;;10.57;9.57;;;21.90;74.30;;;;;;6203720;28;89043;-64
2021/12/13 06:37:25;;;;;;;10.20;9.23;;;21.90;74.30;;;;;;6188120;28;88534;-64
2021/12/13 06:40:29;;;;;;;10.23;9.25;;;21.90;74.40;;;;;;6204182;28;89327;-65
2021/12/13 06:43:34;;;;;;;10.02;9.13;;;22.00;74.40;;;;;;6198668;28;89568;-64
2021/12/13 06:46:51;;;;;;;10.27;9.27;;;21.90;74.40;;;;;;6206757;28;90072;-64
2021/12/13 06:49:57;;;;;;;9.80;8.80;;;21.90;75.20;;;;;;6208685;28;89088;-64
2021/12/13 06:53:15;;;;;;;9.40;8.50;;;21.90;74.40;;;;;;6197248;28;89024;-64
2021/12/13 06:56:26;;;;;;;9.68;8.77;;;21.90;74.40;;;;;;6192137;28;89138;-64
2021/12/13 06:59:32;;;;;;;9.52;8.63;;;21.90;74.40;;;;;;6206271;28;89116;-64
2021/12/13 07:06:04;;;;;;;8.95;8.07;;;21.90;74.30;;;;;;6198604;28;87291;-65
2021/12/13 07:09:12;;;;;;;9.77;8.82;;;22.00;74.20;;;;;;6207835;28;88354;-64
2021/12/13 07:12:16;;;;;;;8.60;7.80;;;22.00;74.20;;;;;;6188993;28;89092;-64
2021/12/13 07:15:39;;;;;;;8.80;7.97;;;22.00;74.20;;;;;;6208728;28;89041;-64
2021/12/13 07:18:47;;;;;;;9.00;8.10;;;22.00;74.10;;;;;;6206474;28;90054;-64
2021/12/13 07:21:56;;;;;;;8.45;7.65;;;22.10;74.10;;;;;;6206412;28;89293;-64
2021/12/13 07:25:07;;;;;;;8.63;7.75;;;22.00;74.00;;;;;;6200263;28;88983;-64
2021/12/13 07:28:10;;;;;;;8.43;7.63;;;22.10;74.20;;;;;;6193463;28;89371;-64
2021/12/13 07:31:18;;;;;;;8.13;7.32;;;22.00;74.10;;;;;;6208186;28;89433;-64
2021/12/13 07:34:21;;;;;;;7.97;7.18;;;22.10;74.10;;;;;;6207203;28;87956;-64
2021/12/13 07:37:47;;;;;;;8.02;7.32;;;22.00;74.00;;;;;;6209180;28;89103;-64
2021/12/13 07:40:51;;;;;;;7.85;7.05;;;22.10;74.10;;;;;;6193747;28;88277;-64
2021/12/13 07:43:54;;;;;;;7.95;7.15;;;22.10;74.10;;;;;;6203162;28;88294;-64
2021/12/13 07:47:02;;;;;;;7.75;6.95;;;22.10;74.20;;;;;;6199606;28;87903;-64
2021/12/13 07:50:04;;;;;;;7.18;6.57;;;22.10;74.00;;;;;;6202474;28;90098;-64
2021/12/13 07:53:12;;;;;;;7.22;6.53;;;22.10;74.10;;;;;;6197979;28;89122;-64
2021/12/13 07:56:22;;;;;;;7.57;6.88;;;22.20;74.10;;;;;;6193720;28;87949;-64
2021/12/13 07:59:27;;;;;;;7.00;6.38;;;22.10;74.10;;;;;;6207251;28;88993;-64
2021/12/13 08:02:33;;;;;;;7.32;6.63;;;22.10;74.10;;;;;;6195153;28;89321;-64
2021/12/13 08:05:39;;;;;;;7.40;6.70;;;22.10;74.10;;;;;;6208238;28;89256;-64
2021/12/13 08:08:50;;;;;;;6.70;6.10;;;22.10;74.00;;;;;;6196554;28;89174;-64
2021/12/13 08:11:56;;;;;;;6.55;5.95;;;22.10;74.10;;;;;;6205345;28;88364;-64
2021/12/13 08:15:11;;;;;;;7.07;6.38;;;22.10;74.00;;;;;;6204583;28;89152;-64
2021/12/13 08:18:24;;;;;;;6.97;6.38;;;22.20;74.10;;;;;;6194344;28;89064;-64
2021/12/13 08:21:27;;;;;;;6.45;5.85;;;22.10;74.00;;;;;;6194869;28;90022;-65
2021/12/13 08:24:34;;;;;;;6.45;5.85;;;22.20;74.00;;;;;;6199655;28;88877;-64
2021/12/13 08:27:39;;;;;;;6.38;5.78;;;22.20;74.00;;;;;;6196999;28;89117;-64
2021/12/13 08:30:46;;;;;;;6.22;5.63;;;22.20;74.00;;;;;;6208082;28;89403;-64
2021/12/13 08:33:52;;;;;;;6.90;6.30;;;22.30;74.00;;;;;;6206730;28;89088;-65
2021/12/13 08:36:55;;;;;;;6.10;5.50;;;22.20;73.80;;;;;;6192375;28;89131;-64
2021/12/13 08:40:05;;;;;;;6.03;5.43;;;22.30;73.90;;;;;;6181340;28;89435;-64
2021/12/13 08:43:07;;;;;;;5.95;5.45;;;22.30;73.80;;;;;;6195021;28;89533;-64
2021/12/13 08:46:12;;;;;;;5.53;5.03;;;22.20;73.80;;;;;;6193808;28;89102;-64
2021/12/13 08:49:18;;;;;;;6.07;5.47;;;22.20;73.70;;;;;;6191834;28;89107;-64
2021/12/13 08:52:25;;;;;;;5.93;5.32;;;22.30;73.80;;;;;;6207603;28;90027;-64
2021/12/13 08:55:33;;;;;;;6.07;5.47;;;22.30;73.80;;;;;;6199004;28;89350;-64
2021/12/13 08:58:36;;;;;;;6.20;5.60;;;22.30;73.80;;;;;;6193352;28;89077;-64
2021/12/13 09:01:45;;;;;;;5.53;5.03;;;22.30;73.80;;;;;;6188814;28;87958;-64
2021/12/13 09:04:59;;;;;;;5.20;4.70;;;22.30;73.90;;;;;;6199239;28;89439;-64
2021/12/13 09:08:09;;;;;;;5.45;4.95;;;22.30;73.90;;;;;;6200694;28;89025;-64
2021/12/13 09:11:22;;;;;;;5.47;4.97;;;22.30;73.80;;;;;;6206763;28;88963;-64
2021/12/13 09:14:28;;;;;;;5.35;4.88;;;22.30;73.80;;;;;;6191778;28;88348;-64
2021/12/13 09:17:37;;;;;;;5.43;4.93;;;22.30;73.80;;;;;;6204707;28;89491;-64
2021/12/13 09:20:44;;;;;;;4.97;4.50;;;22.30;73.80;;;;;;6195438;28;89036;-64
2021/12/13 09:23:51;;;;;;;4.90;4.45;;;22.30;73.80;;;;;;6207109;28;90108;-64
2021/12/13 09:27:04;;;;;;;5.20;4.70;;;22.30;73.80;;;;;;6208841;28;89259;-64
2021/12/13 09:30:23;;;;;;;4.85;4.43;;;22.30;73.80;;;;;;6197771;28;89082;-64
2021/12/13 09:33:28;;;;;;;5.25;4.75;;;22.30;73.80;;;;;;6198332;28;90501;-64
2021/12/13 09:36:32;;;;;;;5.00;4.50;;;22.30;73.80;;;;;;6208480;28;88060;-64
2021/12/13 09:39:34;;;;;;;5.13;4.55;;;22.30;74.70;;;;;;6208970;28;89020;-64
2021/12/13 09:42:49;;;;;;;4.47;4.07;;;22.40;73.80;;;;;;6209942;28;89380;-64
2021/12/13 09:45:55;;;;;;;4.90;4.40;;;22.30;73.70;;;;;;6209227;28;88420;-64
2021/12/13 09:49:01;;;;;;;4.60;4.20;;;22.30;73.70;;;;;;6208151;28;89986;-64
2021/12/13 09:52:07;;;;;;;4.70;4.30;;;22.40;73.80;;;;;;6207979;28;89300;-64
2021/12/13 09:55:14;;;;;;;4.65;4.20;;;22.40;73.80;;;;;;6195539;28;90070;-64
2021/12/13 09:58:21;;;;;;;4.68;4.28;;;22.30;73.70;;;;;;6208041;28;89105;-64
2021/12/13 10:01:27;;;;;;;4.45;4.05;;;22.40;73.80;;;;;;6205196;28;89062;-64
2021/12/13 10:04:32;;;;;;;4.70;4.30;;;22.40;73.70;;;;;;6198607;28;89060;-64
2021/12/13 10:07:37;;;;;;;4.55;4.15;;;22.40;73.70;;;;;;6200790;28;89143;-64
2021/12/13 10:10:43;;;;;;;4.28;3.88;;;22.40;73.70;;;;;;6203772;28;88971;-64
2021/12/13 10:13:47;;;;;;;4.22;3.83;;;22.40;73.70;;;;;;6197198;28;89142;-64
2021/12/13 10:16:54;;;;;;;4.18;3.78;;;22.40;73.60;;;;;;6207586;28;88596;-64
2021/12/13 10:19:59;;;;;;;4.22;3.85;;;22.40;73.60;;;;;;6197873;28;87862;-64
2021/12/13 10:23:02;;;;;;;4.40;4.00;;;22.40;73.70;;;;;;6206730;28;89069;-64
2021/12/13 10:26:07;;;;;;;4.10;3.70;;;22.40;73.60;;;;;;6205162;28;90095;-64
2021/12/13 10:29:14;;;;;;;4.03;3.70;;;22.40;73.70;;;;;;6184579;28;89376;-64
2021/12/13 10:32:18;;;;;;;4.35;3.95;;;22.40;73.60;;;;;;6196074;28;88952;-64
2021/12/13 10:35:24;;;;;;;4.20;3.80;;;22.40;73.60;;;;;;6198274;28;89370;-64
2021/12/13 10:38:30;;;;;;;4.05;3.65;;;22.40;73.60;;;;;;6209321;28;89125;-64
2021/12/13 10:41:36;;;;;;;3.90;3.60;;;22.40;73.60;;;;;;6195110;28;88772;-64
2021/12/13 10:44:44;;;;;;;3.60;3.30;;;22.40;73.70;;;;;;6207624;28;89059;-64
2021/12/13 10:47:50;;;;;;;3.75;3.45;;;22.40;73.60;;;;;;6209935;28;88424;-64
2021/12/13 10:51:12;;;;;;;3.88;3.47;;;22.40;73.60;;;;;;6207644;28;89059;-64
2021/12/13 10:54:17;;;;;;;3.55;3.25;;;22.40;73.70;;;;;;6206512;28;88905;-64
2021/12/13 10:57:23;;;;;;;3.60;3.30;;;22.50;73.70;;;;;;6206332;28;90286;-64
2021/12/13 11:00:30;;;;;;;3.80;3.50;;;22.50;73.70;;;;;;6208113;28;89148;-64
2021/12/13 11:03:34;;;;;;;3.83;3.53;;;22.40;73.60;;;;;;6186821;28;88772;-64
2021/12/13 11:06:39;;;;;;;3.30;3.00;;;22.50;73.70;;;;;;6202943;28;89444;-64
2021/12/13 11:09:43;;;;;;;3.55;3.25;;;22.50;73.70;;;;;;6207416;28;89267;-64
2021/12/13 11:12:48;;;;;;;3.50;3.20;;;22.50;73.70;;;;;;6208016;28;89114;-64
2021/12/13 11:15:58;;;;;;;3.50;3.20;;;22.50;73.70;;;;;;6207592;28;89065;-64
2021/12/13 11:19:00;;;;;;;3.35;3.05;;;22.50;73.70;;;;;;6203452;28;87517;-64
2021/12/13 11:22:05;;;;;;;3.00;2.80;;;22.50;73.70;;;;;;6198112;28;89028;-64
2021/12/13 11:25:11;;;;;;;3.38;3.08;;;22.50;73.60;;;;;;6196227;28;87991;-64
2021/12/13 11:28:15;;;;;;;3.35;3.05;;;22.50;73.70;;;;;;6203486;28;88817;-64
2021/12/13 11:32:00;;;;;;;3.20;2.90;;;22.50;73.70;;;;;;6209067;28;89330;-64
2021/12/13 11:35:44;;;;;;;3.30;3.00;;;22.50;73.70;;;;;;6195116;28;88859;-64
2021/12/13 11:39:24;;;;;;;3.35;3.05;;;22.50;73.60;;;;;;6197832;28;89056;-64
2021/12/13 11:42:45;;;;;;;3.10;2.80;;;22.50;73.60;;;;;;6190743;28;87892;-64
2021/12/13 11:46:10;;;;;;;3.22;2.92;;;22.50;73.50;;;;;;6204335;28;90354;-64
2021/12/13 11:49:44;;;;;;;2.90;2.70;;;22.50;73.50;;;;;;6185129;28;89504;-64
2021/12/13 11:53:13;;;;;;;3.25;2.95;;;22.60;73.60;;;;;;6195441;28;88407;-64
2021/12/13 11:56:39;;;;;;;3.40;3.10;;;22.50;73.50;;;;;;6195043;28;89368;-64
2021/12/13 11:59:56;;;;;;;3.05;2.78;;;22.50;73.60;;;;;;6197940;28;89392;-64
2021/12/13 12:03:38;;;;;;;2.92;2.50;;;22.50;73.50;;;;;;6196023;28;90017;-64
2021/12/13 12:07:17;;;;;;;3.50;2.67;;;22.50;73.60;;;;;;6197570;28;88113;-64
2021/12/13 12:10:47;;;;;;;2.97;2.58;;;22.50;73.60;;;;;;6193093;28;89034;-64
2021/12/13 12:14:03;;;;;;;3.00;2.70;;;22.50;73.60;;;;;;6196684;28;89186;-64
2021/12/13 12:17:08;;;;;;;2.83;2.60;;;22.60;73.70;;;;;;6204918;28;89007;-64
2021/12/13 12:20:15;;;;;;;3.20;2.90;;;22.50;73.60;;;;;;6194136;28;89144;-64
2021/12/13 12:23:28;;;;;;;2.60;2.40;;;22.50;73.70;;;;;;6203722;28;89107;-64
2021/12/13 12:26:32;;;;;;;2.75;2.55;;;22.60;73.70;;;;;;6207850;28;88288;-65
2021/12/13 12:29:54;;;;;;;2.65;2.45;;;22.50;73.70;;;;;;6200871;28;89678;-64
2021/12/13 12:32:59;;;;;;;2.80;2.60;;;22.60;73.70;;;;;;6181407;28;89119;-64
2021/12/13 12:36:06;;;;;;;3.00;2.70;;;22.50;73.70;;;;;;6188946;28;90060;-64
2021/12/13 12:39:51;;;;;;;2.30;2.10;;;22.50;73.70;;;;;;6204862;28;89041;-64
2021/12/13 12:42:57;;;;;;;2.40;2.20;;;22.50;73.70;;;;;;6192759;28;89032;-65
2021/12/13 12:46:01;;;;;;;2.70;2.50;;;22.50;73.60;;;;;;6205888;28;89253;-64
2021/12/13 12:49:03;;;;;;;2.55;2.35;;;22.60;73.70;;;;;;6199225;28;89382;-64
2021/12/13 12:52:09;;;;;;;2.53;2.33;;;22.50;73.70;;;;;;6202277;28;88755;-64
2021/12/13 12:55:13;;;;;;;2.70;2.50;;;22.50;73.60;;;;;;6211555;28;89031;-64
2021/12/13 12:58:19;;;;;;;2.50;2.30;;;22.60;73.70;;;;;;6203408;28;88325;-64
2021/12/13 13:01:24;;;;;;;2.47;2.28;;;22.60;73.60;;;;;;6191137;28;89413;-64
2021/12/13 13:04:28;;;;;;;2.80;2.60;;;22.60;73.60;;;;;;6210391;28;89489;-64
2021/12/13 13:07:33;;;;;;;2.45;2.25;;;22.60;73.50;;;;;;6196622;28;90361;-64
2021/12/13 13:10:48;;;;;;;2.42;2.22;;;22.60;73.50;;;;;;6208310;28;87963;-64
2021/12/13 13:13:51;;;;;;;2.63;2.42;;;22.60;73.50;;;;;;6197067;28;88766;-65
2021/12/13 13:16:57;;;;;;;2.30;2.10;;;22.60;73.50;;;;;;6185464;28;89102;-64
2021/12/13 13:20:04;;;;;;;2.55;2.35;;;22.60;73.50;;;;;;6197844;28;89088;-64
2021/12/13 13:23:07;;;;;;;2.50;2.20;;;22.60;73.40;;;;;;6208689;28;89092;-64
2021/12/13 13:26:10;;;;;;;2.53;2.33;;;22.60;73.50;;;;;;6211020;28;89103;-64
2021/12/13 13:29:16;;;;;;;2.50;2.30;;;22.70;73.50;;;;;;6206404;28;88341;-64
2021/12/13 13:32:18;;;;;;;2.38;2.17;;;22.70;73.60;;;;;;6198127;28;88130;-64
2021/12/13 13:35:22;;;;;;;2.53;2.33;;;22.70;73.60;;;;;;6187369;28;87722;-64
2021/12/13 13:38:24;;;;;;;2.28;2.08;;;22.60;73.50;;;;;;6209674;28;89962;-64
2021/12/13 13:41:26;;;;;;;2.42;2.22;;;22.60;73.50;;;;;;6208716;28;88475;-64
2021/12/13 13:44:29;;;;;;;2.47;2.28;;;22.60;73.50;;;;;;6208330;28;89273;-64
2021/12/13 13:47:34;;;;;;;2.38;2.17;;;22.70;73.60;;;;;;6209883;28;89446;-64
2021/12/13 13:50:39;;;;;;;2.00;1.90;;;22.60;73.50;;;;;;6209773;28;89071;-64
2021/12/13 13:53:44;;;;;;;2.42;2.22;;;22.60;73.60;;;;;;6211118;28;89012;-64
2021/12/13 13:56:47;;;;;;;2.38;2.17;;;22.60;73.60;;;;;;6209493;28;89042;-64
2021/12/13 13:59:52;;;;;;;2.40;2.20;;;22.60;73.50;;;;;;6191033;28;88349;-64
2021/12/13 14:02:54;;;;;;;2.10;1.90;;;22.60;73.60;;;;;;6184797;28;89110;-64
2021/12/13 14:05:58;;;;;;;8.15;2.40;;;22.60;73.50;;;;;;6207596;28;89086;-65
2021/12/13 14:09:04;;;;;;;2.17;1.90;;;22.60;73.70;;;;;;6205664;28;88879;-64
2021/12/13 14:12:09;;;;;;;2.50;2.30;;;22.70;73.80;;;;;;6193379;28;89013;-64
2021/12/13 14:15:15;;;;;;;2.30;2.10;;;22.60;73.80;;;;;;6181284;28;89113;-64
2021/12/13 14:18:20;;;;;;;2.15;1.95;;;22.60;73.90;;;;;;6182911;28;88265;-64
2021/12/13 14:21:26;;;;;;;2.33;2.13;;;22.60;74.00;;;;;;6181511;28;89083;-64
2021/12/13 14:24:36;;;;;;;2.30;2.00;;;22.60;74.00;;;;;;6187306;28;89537;-64
2021/12/13 14:27:39;;;;;;;2.25;2.05;;;22.60;74.10;;;;;;6188513;28;89085;-64
2021/12/13 14:30:47;;;;;;;2.30;2.10;;;22.60;74.20;;;;;;6182884;28;88336;-64
2021/12/13 14:33:51;;;;;;;2.17;1.98;;;22.70;74.20;;;;;;6193210;28;89071;-64
2021/12/13 14:36:56;;;;;;;2.30;2.10;;;22.70;74.10;;;;;;6198402;28;89104;-64
2021/12/13 14:40:00;;;;;;;2.10;1.90;;;22.70;74.20;;;;;;6183450;28;90597;-64
2021/12/13 14:43:02;;;;;;;2.28;2.08;;;22.70;74.20;;;;;;6198997;28;89257;-64
2021/12/13 14:46:11;;;;;;;2.22;2.03;;;22.70;74.20;;;;;;6190859;28;89051;-64
2021/12/13 14:49:17;;;;;;;1.80;1.70;;;22.70;74.20;;;;;;6196239;28;89056;-64
2021/12/13 14:52:23;;;;;;;2.40;2.20;;;22.70;74.30;;;;;;6195287;28;89017;-64
2021/12/13 14:55:33;;;;;;;2.70;2.00;;;22.70;74.20;;;;;;6183145;28;88288;-64
2021/12/13 14:58:38;;;;;;;1.95;1.75;;;22.70;74.20;;;;;;6204459;28;89370;-64
2021/12/13 15:01:44;;;;;;;2.20;1.98;;;22.70;74.30;;;;;;6195283;28;88601;-64
2021/12/13 15:04:47;;;;;;;3.67;2.28;;;22.70;74.40;;;;;;6194569;28;89107;-64
2021/12/13 15:07:50;;;;;;;2.00;1.90;;;22.70;74.40;;;;;;6182535;28;89004;-64
2021/12/13 15:10:56;;;;;;;3.08;2.10;;;22.70;74.50;;;;;;6185103;28;90088;-64
2021/12/13 15:14:08;;;;;;;2.28;2.08;;;22.70;74.50;;;;;;6188570;28;89002;-64
2021/12/13 15:17:19;;;;;;;2.63;2.00;;;22.70;74.50;;;;;;6193373;28;89028;-64
2021/12/13 15:20:24;;;;;;;1.90;1.80;;;22.70;74.60;;;;;;6185891;28;89070;-64
2021/12/13 15:23:29;;;;;;;2.63;1.90;;;22.70;74.50;;;;;;6192177;28;89069;-63
2021/12/13 15:26:36;;;;;;;1.88;1.77;;;22.80;74.60;;;;;;6207380;28;89464;-64
2021/12/13 15:29:40;;;;;;;2.25;1.80;;;22.70;74.40;;;;;;6207356;28;87944;-63
2021/12/13 15:32:46;;;;;;;2.47;2.10;;;22.70;74.40;;;;;;6206629;28;88281;-65
2021/12/13 15:35:49;;;;;;;3.33;1.90;;;22.70;74.40;;;;;;6204262;28;89085;-64
2021/12/13 15:38:52;;;;;;;2.00;1.85;;;22.70;74.40;;;;;;6194983;28;89044;-64
2021/12/13 15:41:57;;;;;;;2.20;2.00;;;22.80;74.40;;;;;;6202433;28;89687;-64
2021/12/13 15:45:17;;;;;;;2.30;2.10;;;22.70;74.40;;;;;;6183623;28;89032;-64
2021/12/13 15:51:46;;;;;;;2.30;2.10;;;22.70;74.30;;;;;;6198059;28;87989;-64
2021/12/13 15:54:52;;;;;;;2.00;1.80;;;22.70;74.30;;;;;;6194762;28;90174;-64
2021/12/13 15:57:54;;;;;;;2.40;2.20;;;22.80;74.30;;;;;;6207923;28;88970;-64
2021/12/13 16:01:08;;;;;;;2.08;1.88;;;22.80;74.20;;;;;;6206165;28;89064;-64
2021/12/13 16:04:14;;;;;;;2.15;1.98;;;22.70;74.10;;;;;;6208564;28;87229;-64
2021/12/13 16:07:19;;;;;;;2.03;1.90;;;22.80;74.10;;;;;;6196898;28;89126;-64
2021/12/13 16:10:23;;;;;;;2.17;2.08;;;22.80;74.00;;;;;;6196226;28;89057;-64
2021/12/13 16:13:25;;;;;;;3.30;2.22;;;22.80;74.00;;;;;;6206686;28;89851;-64
2021/12/13 16:16:31;;;;;;;2.28;2.08;;;22.80;74.00;;;;;;6205367;28;89060;-64